sensor_id;sensor_type;location;lat;lon;timestamp;pressure;altitude;pressure_sealevel;temperature;humidity
49393;BME280;35268;42.642;23.308;2023-04-19T00:00:41;93523.66;;;10.22;70.88
49393;BME280;35268;42.642;23.308;2023-04-19T00:03:07;93522.88;;;10.22;70.51
49393;BME280;35268;42.642;23.308;2023-04-19T00:05:34;93526.31;;;10.22;71.37
49393;BME280;35268;42.642;23.308;2023-04-19T00:07:59;93520.97;;;10.22;71.24
49393;BME280;35268;42.642;23.308;2023-04-19T00:10:25;93519.41;;;10.21;71.55
49393;BME280;35268;42.642;23.308;2023-04-19T00:12:51;93520.06;;;10.18;71.50
49393;BME280;35268;42.642;23.308;2023-04-19T00:15:17;93517.09;;;10.20;71.40
49393;BME280;35268;42.642;23.308;2023-04-19T00:17:42;93511.75;;;10.20;71.02
49393;BME280;35268;42.642;23.308;2023-04-19T00:20:08;93515.50;;;10.19;71.08
49393;BME280;35268;42.642;23.308;2023-04-19T00:22:34;93514.28;;;10.16;70.82
49393;BME280;35268;42.642;23.308;2023-04-19T00:25:00;93514.88;;;10.13;71.67
49393;BME280;35268;42.642;23.308;2023-04-19T00:27:26;93511.75;;;10.11;71.27
49393;BME280;35268;42.642;23.308;2023-04-19T00:29:52;93513.50;;;10.07;71.33
49393;BME280;35268;42.642;23.308;2023-04-19T00:32:17;93508.03;;;10.03;71.90
49393;BME280;35268;42.642;23.308;2023-04-19T00:34:43;93512.44;;;9.99;72.32
49393;BME280;35268;42.642;23.308;2023-04-19T00:37:08;93508.03;;;9.95;73.07
49393;BME280;35268;42.642;23.308;2023-04-19T00:39:35;93511.66;;;9.90;73.28
49393;BME280;35268;42.642;23.308;2023-04-19T00:42:00;93507.47;;;9.80;73.33
49393;BME280;35268;42.642;23.308;2023-04-19T00:44:26;93510.59;;;9.74;73.70
49393;BME280;35268;42.642;23.308;2023-04-19T00:46:52;93506.25;;;9.69;73.29
49393;BME280;35268;42.642;23.308;2023-04-19T00:49:19;93510.44;;;9.70;73.26
49393;BME280;35268;42.642;23.308;2023-04-19T00:51:45;93495.91;;;9.59;73.63
49393;BME280;35268;42.642;23.308;2023-04-19T00:54:12;93496.06;;;9.54;73.61
49393;BME280;35268;42.642;23.308;2023-04-19T00:56:39;93498.09;;;9.48;73.96
49393;BME280;35268;42.642;23.308;2023-04-19T00:59:04;93492.66;;;9.44;74.00
49393;BME280;35268;42.642;23.308;2023-04-19T01:01:31;93492.50;;;9.41;74.22
49393;BME280;35268;42.642;23.308;2023-04-19T01:03:56;93502.50;;;9.35;74.75
49393;BME280;35268;42.642;23.308;2023-04-19T01:06:22;93497.47;;;9.34;75.39
49393;BME280;35268;42.642;23.308;2023-04-19T01:08:47;93494.81;;;9.34;75.67
49393;BME280;35268;42.642;23.308;2023-04-19T01:11:13;93493.41;;;9.28;75.57
49393;BME280;35268;42.642;23.308;2023-04-19T01:13:38;93488.28;;;9.22;75.72
49393;BME280;35268;42.642;23.308;2023-04-19T01:16:05;93492.19;;;9.16;76.30
49393;BME280;35268;42.642;23.308;2023-04-19T01:18:31;93477.78;;;9.09;76.59
49393;BME280;35268;42.642;23.308;2023-04-19T01:21:04;93488.41;;;9.00;76.82
49393;BME280;35268;42.642;23.308;2023-04-19T01:23:31;93485.91;;;8.95;76.68
49393;BME280;35268;42.642;23.308;2023-04-19T01:25:56;93483.25;;;8.95;76.99
49393;BME280;35268;42.642;23.308;2023-04-19T01:28:21;93487.00;;;8.94;77.18
49393;BME280;35268;42.642;23.308;2023-04-19T01:30:47;93484.03;;;8.95;77.30
49393;BME280;35268;42.642;23.308;2023-04-19T01:33:15;93491.69;;;8.97;76.87
49393;BME280;35268;42.642;23.308;2023-04-19T01:35:41;93489.81;;;8.97;76.59
49393;BME280;35268;42.642;23.308;2023-04-19T01:38:06;93487.00;;;8.94;75.93
49393;BME280;35268;42.642;23.308;2023-04-19T01:40:32;93491.69;;;8.97;75.85
49393;BME280;35268;42.642;23.308;2023-04-19T01:42:58;93487.00;;;8.94;75.79
49393;BME280;35268;42.642;23.308;2023-04-19T01:45:23;93487.63;;;8.91;76.10
49393;BME280;35268;42.642;23.308;2023-04-19T01:47:48;93478.88;;;8.90;76.63
49393;BME280;35268;42.642;23.308;2023-04-19T01:50:14;93489.63;;;8.85;76.50
49393;BME280;35268;42.642;23.308;2023-04-19T01:52:39;93474.97;;;8.88;76.97
49393;BME280;35268;42.642;23.308;2023-04-19T01:55:05;93478.88;;;8.90;76.98
49393;BME280;35268;42.642;23.308;2023-04-19T01:57:31;93472.13;;;8.93;77.04
49393;BME280;35268;42.642;23.308;2023-04-19T01:59:56;93478.09;;;8.90;77.09
49393;BME280;35268;42.642;23.308;2023-04-19T02:02:21;93478.56;;;8.92;76.51
49393;BME280;35268;42.642;23.308;2023-04-19T02:04:47;93483.53;;;8.93;77.00
49393;BME280;35268;42.642;23.308;2023-04-19T02:07:13;93476.69;;;8.92;77.01
49393;BME280;35268;42.642;23.308;2023-04-19T02:09:38;93480.13;;;8.93;76.90
49393;BME280;35268;42.642;23.308;2023-04-19T02:12:04;93482.59;;;8.89;76.78
49393;BME280;35268;42.642;23.308;2023-04-19T02:14:30;93484.78;;;8.87;76.91
49393;BME280;35268;42.642;23.308;2023-04-19T02:16:56;93485.72;;;8.82;77.31
49393;BME280;35268;42.642;23.308;2023-04-19T02:19:22;93476.69;;;8.83;77.56
49393;BME280;35268;42.642;23.308;2023-04-19T02:21:48;93481.81;;;8.80;77.70
49393;BME280;35268;42.642;23.308;2023-04-19T02:24:13;93482.91;;;8.79;77.86
49393;BME280;35268;42.642;23.308;2023-04-19T02:26:39;93479.63;;;8.73;78.22
49393;BME280;35268;42.642;23.308;2023-04-19T02:29:05;93487.72;;;8.59;78.78
49393;BME280;35268;42.642;23.308;2023-04-19T02:31:30;93483.03;;;8.56;79.12
49393;BME280;35268;42.642;23.308;2023-04-19T02:33:56;93484.44;;;8.54;79.30
49393;BME280;35268;42.642;23.308;2023-04-19T02:36:22;93484.03;;;8.38;79.57
49393;BME280;35268;42.642;23.308;2023-04-19T02:38:47;93481.19;;;8.34;80.27
49393;BME280;35268;42.642;23.308;2023-04-19T02:41:12;93474.31;;;8.24;80.40
49393;BME280;35268;42.642;23.308;2023-04-19T02:43:38;93470.38;;;8.13;80.43
49393;BME280;35268;42.642;23.308;2023-04-19T02:46:04;93469.84;;;8.02;80.81
49393;BME280;35268;42.642;23.308;2023-04-19T02:48:29;93462.66;;;7.94;81.38
49393;BME280;35268;42.642;23.308;2023-04-19T02:50:54;93465.00;;;7.96;81.51
49393;BME280;35268;42.642;23.308;2023-04-19T02:53:20;93470.91;;;7.93;81.77
49393;BME280;35268;42.642;23.308;2023-04-19T02:55:45;93476.38;;;7.96;81.83
49393;BME280;35268;42.642;23.308;2023-04-19T02:58:11;93476.56;;;8.00;81.82
49393;BME280;35268;42.642;23.308;2023-04-19T03:00:36;93473.59;;;8.01;81.72
49393;BME280;35268;42.642;23.308;2023-04-19T03:03:02;93473.44;;;7.98;81.93
49393;BME280;35268;42.642;23.308;2023-04-19T03:05:28;93485.13;;;7.97;81.84
49393;BME280;35268;42.642;23.308;2023-04-19T03:07:54;93481.53;;;7.93;81.63
49393;BME280;35268;42.642;23.308;2023-04-19T03:10:20;93479.16;;;7.91;81.72
49393;BME280;35268;42.642;23.308;2023-04-19T03:12:45;93478.38;;;7.91;81.62
49393;BME280;35268;42.642;23.308;2023-04-19T03:15:10;93475.00;;;7.99;81.67
49393;BME280;35268;42.642;23.308;2023-04-19T03:17:36;93477.47;;;7.95;81.82
49393;BME280;35268;42.642;23.308;2023-04-19T03:20:01;93471.84;;;7.97;81.41
49393;BME280;35268;42.642;23.308;2023-04-19T03:22:27;93469.38;;;8.00;81.40
49393;BME280;35268;42.642;23.308;2023-04-19T03:24:52;93473.44;;;7.98;81.28
49393;BME280;35268;42.642;23.308;2023-04-19T03:27:18;93472.63;;;7.97;80.74
49393;BME280;35268;42.642;23.308;2023-04-19T03:29:43;93472.00;;;7.92;81.30
49393;BME280;35268;42.642;23.308;2023-04-19T03:32:09;93467.59;;;7.87;80.93
49393;BME280;35268;42.642;23.308;2023-04-19T03:34:34;93462.47;;;7.91;80.86
49393;BME280;35268;42.642;23.308;2023-04-19T03:37:00;93466.06;;;7.95;80.91
49393;BME280;35268;42.642;23.308;2023-04-19T03:39:25;93467.03;;;7.99;80.44
49393;BME280;35268;42.642;23.308;2023-04-19T03:41:51;93471.38;;;7.95;80.58
49393;BME280;35268;42.642;23.308;2023-04-19T03:44:16;93460.78;;;7.95;80.46
49393;BME280;35268;42.642;23.308;2023-04-19T03:46:42;93464.19;;;7.95;80.68
49393;BME280;35268;42.642;23.308;2023-04-19T03:49:07;93470.31;;;7.96;80.66
49393;BME280;35268;42.642;23.308;2023-04-19T03:51:33;93470.31;;;7.73;80.40
49393;BME280;35268;42.642;23.308;2023-04-19T03:53:58;93471.91;;;7.74;80.71
49393;BME280;35268;42.642;23.308;2023-04-19T03:56:24;93470.66;;;7.72;80.85
49393;BME280;35268;42.642;23.308;2023-04-19T03:58:50;93466.13;;;7.72;81.13
49393;BME280;35268;42.642;23.308;2023-04-19T04:01:20;93459.56;;;7.70;81.32
49393;BME280;35268;42.642;23.308;2023-04-19T04:03:46;93474.38;;;7.71;81.29
49393;BME280;35268;42.642;23.308;2023-04-19T04:06:11;93463.00;;;7.70;81.16
49393;BME280;35268;42.642;23.308;2023-04-19T04:08:37;93468.28;;;7.70;80.97
49393;BME280;35268;42.642;23.308;2023-04-19T04:11:05;93470.47;;;7.68;81.21
49393;BME280;35268;42.642;23.308;2023-04-19T04:13:31;93467.81;;;7.68;81.35
49393;BME280;35268;42.642;23.308;2023-04-19T04:15:56;93470.66;;;7.72;81.53
49393;BME280;35268;42.642;23.308;2023-04-19T04:18:22;93467.69;;;7.73;81.49
49393;BME280;35268;42.642;23.308;2023-04-19T04:20:47;93470.50;;;7.77;81.27
49393;BME280;35268;42.642;23.308;2023-04-19T04:23:13;93471.91;;;7.74;81.27
49393;BME280;35268;42.642;23.308;2023-04-19T04:25:38;93464.44;;;7.76;81.04
49393;BME280;35268;42.642;23.308;2023-04-19T04:28:05;93473.03;;;7.82;80.90
49393;BME280;35268;42.642;23.308;2023-04-19T04:30:40;93473.84;;;7.91;80.62
49393;BME280;35268;42.642;23.308;2023-04-19T04:33:23;93476.69;;;7.95;80.58
49393;BME280;35268;42.642;23.308;2023-04-19T04:35:53;93480.91;;;7.96;80.73
49393;BME280;35268;42.642;23.308;2023-04-19T04:38:19;93486.34;;;7.91;80.15
49393;BME280;35268;42.642;23.308;2023-04-19T04:40:52;93478.09;;;7.92;80.50
49393;BME280;35268;42.642;23.308;2023-04-19T04:43:22;93479.16;;;7.91;79.64
49393;BME280;35268;42.642;23.308;2023-04-19T04:45:48;93486.81;;;7.93;80.39
49393;BME280;35268;42.642;23.308;2023-04-19T04:48:14;93488.22;;;7.90;80.25
49393;BME280;35268;42.642;23.308;2023-04-19T04:50:39;93487.44;;;7.90;80.22
49393;BME280;35268;42.642;23.308;2023-04-19T04:53:05;93492.75;;;7.90;80.05
49393;BME280;35268;42.642;23.308;2023-04-19T04:55:31;93493.06;;;7.88;80.64
49393;BME280;35268;42.642;23.308;2023-04-19T04:57:56;93494.31;;;7.91;80.16
49393;BME280;35268;42.642;23.308;2023-04-19T05:00:22;93491.84;;;7.94;80.35
49393;BME280;35268;42.642;23.308;2023-04-19T05:02:47;93484.78;;;7.90;80.15
49393;BME280;35268;42.642;23.308;2023-04-19T05:05:13;93488.63;;;7.83;80.67
49393;BME280;35268;42.642;23.308;2023-04-19T05:07:39;93494.31;;;7.91;80.55
49393;BME280;35268;42.642;23.308;2023-04-19T05:10:05;93492.56;;;7.86;80.08
49393;BME280;35268;42.642;23.308;2023-04-19T05:12:31;93489.97;;;7.95;79.85
49393;BME280;35268;42.642;23.308;2023-04-19T05:14:57;93491.22;;;7.97;79.96
49393;BME280;35268;42.642;23.308;2023-04-19T05:17:22;93496.38;;;7.94;79.95
49393;BME280;35268;42.642;23.308;2023-04-19T05:19:48;93495.41;;;7.90;79.93
49393;BME280;35268;42.642;23.308;2023-04-19T05:22:13;93494.59;;;7.89;80.13
49393;BME280;35268;42.642;23.308;2023-04-19T05:24:39;93492.56;;;7.86;79.48
49393;BME280;35268;42.642;23.308;2023-04-19T05:27:04;93494.59;;;7.89;79.86
49393;BME280;35268;42.642;23.308;2023-04-19T05:29:30;93493.00;;;7.79;80.21
49393;BME280;35268;42.642;23.308;2023-04-19T05:31:56;93498.38;;;7.88;79.87
49393;BME280;35268;42.642;23.308;2023-04-19T05:34:22;93491.78;;;7.86;80.05
49393;BME280;35268;42.642;23.308;2023-04-19T05:36:48;93504.25;;;7.85;80.65
49393;BME280;35268;42.642;23.308;2023-04-19T05:39:13;93504.16;;;7.90;79.87
49393;BME280;35268;42.642;23.308;2023-04-19T05:41:39;93501.19;;;7.92;80.06
49393;BME280;35268;42.642;23.308;2023-04-19T05:44:05;93503.72;;;7.97;80.11
49393;BME280;35268;42.642;23.308;2023-04-19T05:46:31;93508.09;;;8.01;80.15
49393;BME280;35268;42.642;23.308;2023-04-19T05:48:56;93495.44;;;7.98;80.28
49393;BME280;35268;42.642;23.308;2023-04-19T05:51:22;93499.19;;;7.97;80.47
49393;BME280;35268;42.642;23.308;2023-04-19T05:53:47;93505.28;;;7.98;79.72
49393;BME280;35268;42.642;23.308;2023-04-19T05:56:13;93501.06;;;7.97;80.39
49393;BME280;35268;42.642;23.308;2023-04-19T05:58:38;93504.34;;;7.94;80.13
49393;BME280;35268;42.642;23.308;2023-04-19T06:01:04;93499.03;;;7.94;80.81
49393;BME280;35268;42.642;23.308;2023-04-19T06:03:30;93506.06;;;7.98;80.39
49393;BME280;35268;42.642;23.308;2023-04-19T06:05:55;93514.69;;;8.04;80.36
49393;BME280;35268;42.642;23.308;2023-04-19T06:08:21;93515.16;;;8.06;80.94
49393;BME280;35268;42.642;23.308;2023-04-19T06:10:46;93505.97;;;8.12;80.77
49393;BME280;35268;42.642;23.308;2023-04-19T06:13:13;93515.84;;;8.20;80.82
49393;BME280;35268;42.642;23.308;2023-04-19T06:15:40;93515.69;;;8.26;80.61
49393;BME280;35268;42.642;23.308;2023-04-19T06:18:05;93508.84;;;8.24;80.50
49393;BME280;35268;42.642;23.308;2023-04-19T06:20:37;93523.38;;;8.27;80.07
49393;BME280;35268;42.642;23.308;2023-04-19T06:23:02;93523.22;;;8.32;79.75
49393;BME280;35268;42.642;23.308;2023-04-19T06:25:28;93514.47;;;8.32;79.32
49393;BME280;35268;42.642;23.308;2023-04-19T06:27:53;93522.13;;;8.33;79.20
49393;BME280;35268;42.642;23.308;2023-04-19T06:30:19;93522.13;;;8.33;79.01
49393;BME280;35268;42.642;23.308;2023-04-19T06:32:45;93525.28;;;8.35;79.08
49393;BME280;35268;42.642;23.308;2023-04-19T06:35:10;93524.44;;;8.26;78.48
49393;BME280;35268;42.642;23.308;2023-04-19T06:37:36;93509.19;;;8.40;79.60
49393;BME280;35268;42.642;23.308;2023-04-19T06:40:01;93517.06;;;8.54;79.19
49393;BME280;35268;42.642;23.308;2023-04-19T06:42:29;93523.06;;;8.69;77.75
49393;BME280;35268;42.642;23.308;2023-04-19T06:44:54;93524.53;;;8.83;77.91
49393;BME280;35268;42.642;23.308;2023-04-19T06:47:21;93514.19;;;8.91;77.73
49393;BME280;35268;42.642;23.308;2023-04-19T06:49:46;93531.72;;;8.92;76.46
49393;BME280;35268;42.642;23.308;2023-04-19T06:52:12;93515.13;;;8.86;76.72
49393;BME280;35268;42.642;23.308;2023-04-19T06:54:52;93517.78;;;8.95;76.73
49393;BME280;35268;42.642;23.308;2023-04-19T06:57:18;93532.50;;;9.01;75.56
49393;BME280;35268;42.642;23.308;2023-04-19T06:59:43;93530.31;;;8.94;75.09
49393;BME280;35268;42.642;23.308;2023-04-19T07:02:09;93525.94;;;8.98;75.67
49393;BME280;35268;42.642;23.308;2023-04-19T07:04:35;93533.75;;;8.86;75.27
49393;BME280;35268;42.642;23.308;2023-04-19T07:07:02;93527.34;;;8.96;75.82
49393;BME280;35268;42.642;23.308;2023-04-19T07:09:27;93531.25;;;8.98;75.55
49393;BME280;35268;42.642;23.308;2023-04-19T07:11:53;93526.59;;;9.13;75.44
49393;BME280;35268;42.642;23.308;2023-04-19T07:14:18;93529.25;;;9.30;74.82
49393;BME280;35268;42.642;23.308;2023-04-19T07:16:45;93525.19;;;9.24;73.99
49393;BME280;35268;42.642;23.308;2023-04-19T07:19:11;93525.97;;;9.33;75.52
49393;BME280;35268;42.642;23.308;2023-04-19T07:21:36;93522.53;;;9.41;74.18
49393;BME280;35268;42.642;23.308;2023-04-19T07:24:05;93538.81;;;9.49;73.82
49393;BME280;35268;42.642;23.308;2023-04-19T07:26:31;93540.19;;;9.46;72.64
49393;BME280;35268;42.642;23.308;2023-04-19T07:28:57;93535.34;;;9.48;73.16
49393;BME280;35268;42.642;23.308;2023-04-19T07:31:23;93548.34;;;9.58;73.17
49393;BME280;35268;42.642;23.308;2023-04-19T07:33:50;93533.31;;;9.45;74.40
49393;BME280;35268;42.642;23.308;2023-04-19T07:36:15;93530.50;;;9.33;73.70
49393;BME280;35268;42.642;23.308;2023-04-19T07:38:41;93533.00;;;9.38;73.88
49393;BME280;35268;42.642;23.308;2023-04-19T07:41:06;93531.28;;;9.42;73.89
49393;BME280;35268;42.642;23.308;2023-04-19T07:43:32;93529.44;;;9.42;73.20
49393;BME280;35268;42.642;23.308;2023-04-19T07:45:58;93530.81;;;9.40;73.33
49393;BME280;35268;42.642;23.308;2023-04-19T07:48:23;93520.50;;;9.38;73.41
49393;BME280;35268;42.642;23.308;2023-04-19T07:50:49;93529.72;;;9.50;73.44
49393;BME280;35268;42.642;23.308;2023-04-19T07:53:14;93521.88;;;9.62;72.97
49393;BME280;35268;42.642;23.308;2023-04-19T07:55:40;93533.13;;;9.76;72.06
49393;BME280;35268;42.642;23.308;2023-04-19T07:58:06;93528.41;;;9.91;72.23
49393;BME280;35268;42.642;23.308;2023-04-19T08:00:31;93534.38;;;9.88;71.71
49393;BME280;35268;42.642;23.308;2023-04-19T08:02:59;93533.75;;;9.91;70.99
49393;BME280;35268;42.642;23.308;2023-04-19T08:05:24;93522.31;;;9.90;71.54
49393;BME280;35268;42.642;23.308;2023-04-19T08:07:51;93534.09;;;9.89;71.05
49393;BME280;35268;42.642;23.308;2023-04-19T08:10:17;93530.16;;;9.87;71.28
49393;BME280;35268;42.642;23.308;2023-04-19T08:12:43;93526.88;;;9.90;71.19
49393;BME280;35268;42.642;23.308;2023-04-19T08:15:09;93523.88;;;10.00;71.13
49393;BME280;35268;42.642;23.308;2023-04-19T08:17:34;93519.28;;;10.09;70.82
49393;BME280;35268;42.642;23.308;2023-04-19T08:20:00;93521.78;;;10.14;70.70
49393;BME280;35268;42.642;23.308;2023-04-19T08:22:26;93527.44;;;10.13;70.95
49393;BME280;35268;42.642;23.308;2023-04-19T08:24:51;93528.97;;;10.22;71.66
49393;BME280;35268;42.642;23.308;2023-04-19T08:27:17;93527.13;;;10.14;70.65
49393;BME280;35268;42.642;23.308;2023-04-19T08:29:43;93531.03;;;10.17;70.35
49393;BME280;35268;42.642;23.308;2023-04-19T08:32:10;93540.09;;;10.24;70.97
49393;BME280;35268;42.642;23.308;2023-04-19T08:34:36;93521.31;;;10.12;70.65
49393;BME280;35268;42.642;23.308;2023-04-19T08:37:02;93517.75;;;10.08;71.10
49393;BME280;35268;42.642;23.308;2023-04-19T08:39:31;93529.31;;;10.12;70.95
49393;BME280;35268;42.642;23.308;2023-04-19T08:42:03;93522.88;;;10.13;70.26
49393;BME280;35268;42.642;23.308;2023-04-19T08:44:30;93531.03;;;10.17;70.21
49393;BME280;35268;42.642;23.308;2023-04-19T08:46:58;93521.75;;;10.32;69.71
49393;BME280;35268;42.642;23.308;2023-04-19T08:49:23;93516.06;;;10.42;71.28
49393;BME280;35268;42.642;23.308;2023-04-19T08:51:49;93523.44;;;10.45;69.69
49393;BME280;35268;42.642;23.308;2023-04-19T08:54:15;93505.09;;;10.52;69.64
49393;BME280;35268;42.642;23.308;2023-04-19T08:56:41;93506.78;;;10.57;67.97
49393;BME280;35268;42.642;23.308;2023-04-19T08:59:07;93505.34;;;10.59;68.84
49393;BME280;35268;42.642;23.308;2023-04-19T09:01:32;93506.25;;;10.63;69.17
49393;BME280;35268;42.642;23.308;2023-04-19T09:03:58;93508.00;;;10.59;69.11
49393;BME280;35268;42.642;23.308;2023-04-19T09:06:23;93510.81;;;10.63;67.86
49393;BME280;35268;42.642;23.308;2023-04-19T09:08:50;93507.84;;;10.64;67.98
49393;BME280;35268;42.642;23.308;2023-04-19T09:11:37;93492.78;;;10.69;68.65
49393;BME280;35268;42.642;23.308;2023-04-19T09:14:10;93498.19;;;10.81;67.55
49393;BME280;35268;42.642;23.308;2023-04-19T09:16:36;93499.94;;;10.77;67.73
49393;BME280;35268;42.642;23.308;2023-04-19T09:19:03;93493.50;;;10.78;67.80
49393;BME280;35268;42.642;23.308;2023-04-19T09:21:32;93493.53;;;10.69;68.07
49393;BME280;35268;42.642;23.308;2023-04-19T09:23:58;93490.56;;;10.71;68.46
49393;BME280;35268;42.642;23.308;2023-04-19T09:26:25;93480.38;;;10.73;68.48
49393;BME280;35268;42.642;23.308;2023-04-19T09:29:06;93487.63;;;10.84;68.66
49393;BME280;35268;42.642;23.308;2023-04-19T09:31:36;93490.75;;;10.87;67.31
49393;BME280;35268;42.642;23.308;2023-04-19T09:34:18;93483.88;;;10.86;67.42
49393;BME280;35268;42.642;23.308;2023-04-19T09:36:44;93495.53;;;10.81;67.13
49393;BME280;35268;42.642;23.308;2023-04-19T09:39:10;93480.16;;;10.78;67.05
49393;BME280;35268;42.642;23.308;2023-04-19T09:41:51;93487.31;;;10.86;67.75
49393;BME280;35268;42.642;23.308;2023-04-19T09:44:18;93493.06;;;10.97;67.20
49393;BME280;35268;42.642;23.308;2023-04-19T09:46:43;93489.47;;;10.93;66.26
49393;BME280;35268;42.642;23.308;2023-04-19T09:49:20;93482.72;;;10.95;65.39
49393;BME280;35268;42.642;23.308;2023-04-19T09:51:55;93491.19;;;10.97;66.45
49393;BME280;35268;42.642;23.308;2023-04-19T09:54:24;93485.66;;;11.02;65.54
49393;BME280;35268;42.642;23.308;2023-04-19T09:56:51;93476.47;;;11.12;66.55
49393;BME280;35268;42.642;23.308;2023-04-19T09:59:17;93471.06;;;11.21;65.81
49393;BME280;35268;42.642;23.308;2023-04-19T10:01:44;93474.00;;;11.28;65.52
49393;BME280;35268;42.642;23.308;2023-04-19T10:04:11;93466.25;;;11.35;65.65
49393;BME280;35268;42.642;23.308;2023-04-19T10:06:39;93460.66;;;11.49;65.48
49393;BME280;35268;42.642;23.308;2023-04-19T10:09:06;93471.53;;;11.77;64.51
49393;BME280;35268;42.642;23.308;2023-04-19T10:11:36;93472.44;;;11.81;63.54
49393;BME280;35268;42.642;23.308;2023-04-19T10:14:09;93463.19;;;11.79;63.69
49393;BME280;35268;42.642;23.308;2023-04-19T10:16:37;93459.19;;;11.73;62.82
49393;BME280;35268;42.642;23.308;2023-04-19T10:19:06;93457.97;;;11.82;62.29
49393;BME280;35268;42.642;23.308;2023-04-19T10:21:33;93456.84;;;11.83;61.98
49393;BME280;35268;42.642;23.308;2023-04-19T10:24:00;93462.19;;;11.83;60.86
49393;BME280;35268;42.642;23.308;2023-04-19T10:26:25;93457.19;;;11.82;60.45
49393;BME280;35268;42.642;23.308;2023-04-19T10:28:53;93461.94;;;11.76;60.09
49393;BME280;35268;42.642;23.308;2023-04-19T10:31:20;93471.53;;;11.77;60.49
49393;BME280;35268;42.642;23.308;2023-04-19T10:33:48;93449.50;;;11.80;61.18
49393;BME280;35268;42.642;23.308;2023-04-19T10:36:14;93441.84;;;11.79;62.17
49393;BME280;35268;42.642;23.308;2023-04-19T10:38:49;93454.31;;;11.87;62.08
49393;BME280;35268;42.642;23.308;2023-04-19T10:41:20;93450.47;;;11.97;60.96
49393;BME280;35268;42.642;23.308;2023-04-19T10:51:17;93431.25;;;12.28;59.05
49393;BME280;35268;42.642;23.308;2023-04-19T10:53:44;93427.25;;;12.34;58.74
49393;BME280;35268;42.642;23.308;2023-04-19T10:56:11;93418.09;;;12.35;57.73
49393;BME280;35268;42.642;23.308;2023-04-19T11:04:01;93422.19;;;12.70;54.87
49393;BME280;35268;42.642;23.308;2023-04-19T11:06:27;93448.59;;;12.71;55.54
49393;BME280;35268;42.642;23.308;2023-04-19T11:08:53;93423.97;;;12.65;56.19
49393;BME280;35268;42.642;23.308;2023-04-19T11:11:19;93428.09;;;12.75;57.65
49393;BME280;35268;42.642;23.308;2023-04-19T11:13:48;93426.00;;;12.69;56.91
49393;BME280;35268;42.642;23.308;2023-04-19T11:16:14;93420.31;;;12.70;56.70
49393;BME280;35268;42.642;23.308;2023-04-19T11:18:40;93426.19;;;12.76;56.90
49393;BME280;35268;42.642;23.308;2023-04-19T11:21:05;93421.81;;;12.96;56.80
49393;BME280;35268;42.642;23.308;2023-04-19T11:23:31;93431.81;;;13.11;54.18
49393;BME280;35268;42.642;23.308;2023-04-19T11:25:57;93409.84;;;13.18;55.32
49393;BME280;35268;42.642;23.308;2023-04-19T11:28:23;93421.84;;;13.36;54.27
49393;BME280;35268;42.642;23.308;2023-04-19T11:30:48;93423.31;;;13.34;52.76
49393;BME280;35268;42.642;23.308;2023-04-19T11:33:14;93420.53;;;13.30;53.07
49393;BME280;35268;42.642;23.308;2023-04-19T11:35:39;93425.66;;;13.23;54.02
49393;BME280;35268;42.642;23.308;2023-04-19T11:38:07;93421.97;;;13.28;55.02
49393;BME280;35268;42.642;23.308;2023-04-19T11:40:33;93426.09;;;13.37;53.13
49393;BME280;35268;42.642;23.308;2023-04-19T11:43:00;93421.50;;;13.38;53.08
49393;BME280;35268;42.642;23.308;2023-04-19T11:45:31;93428.34;;;13.23;54.95
49393;BME280;35268;42.642;23.308;2023-04-19T11:47:56;93411.03;;;13.20;54.64
49393;BME280;35268;42.642;23.308;2023-04-19T11:50:33;93405.28;;;13.47;53.51
49393;BME280;35268;42.642;23.308;2023-04-19T11:53:21;93406.09;;;13.63;51.96
49393;BME280;35268;42.642;23.308;2023-04-19T11:55:49;93405.69;;;13.77;49.90
49393;BME280;35268;42.642;23.308;2023-04-19T11:58:27;93406.38;;;13.90;51.12
49393;BME280;35268;42.642;23.308;2023-04-19T12:00:55;93410.91;;;14.01;48.69
49393;BME280;35268;42.642;23.308;2023-04-19T12:03:23;93397.94;;;14.03;48.90
49393;BME280;35268;42.642;23.308;2023-04-19T12:05:57;93399.41;;;14.01;48.84
49393;BME280;35268;42.642;23.308;2023-04-19T12:08:36;93403.91;;;14.13;47.34
49393;BME280;35268;42.642;23.308;2023-04-19T12:11:03;93395.16;;;14.16;47.25
49393;BME280;35268;42.642;23.308;2023-04-19T12:13:29;93383.91;;;14.26;47.10
49393;BME280;35268;42.642;23.308;2023-04-19T12:15:56;93379.84;;;14.48;48.81
49393;BME280;35268;42.642;23.308;2023-04-19T12:18:22;93399.22;;;14.57;47.69
49393;BME280;35268;42.642;23.308;2023-04-19T12:20:49;93392.63;;;14.55;47.60
49393;BME280;35268;42.642;23.308;2023-04-19T12:23:16;93402.13;;;14.52;45.78
49393;BME280;35268;42.642;23.308;2023-04-19T12:25:44;93392.47;;;14.32;47.58
49393;BME280;35268;42.642;23.308;2023-04-19T12:28:11;93392.19;;;14.37;49.18
49393;BME280;35268;42.642;23.308;2023-04-19T12:30:38;93381.88;;;14.55;49.91
49393;BME280;35268;42.642;23.308;2023-04-19T12:33:05;93387.72;;;14.57;47.39
49393;BME280;35268;42.642;23.308;2023-04-19T12:35:33;93382.09;;;14.62;46.09
49393;BME280;35268;42.642;23.308;2023-04-19T12:38:02;93387.41;;;14.78;44.86
49393;BME280;35268;42.642;23.308;2023-04-19T12:40:29;93374.50;;;15.03;43.71
49393;BME280;35268;42.642;23.308;2023-04-19T12:42:56;93377.84;;;14.96;43.93
49393;BME280;35268;42.642;23.308;2023-04-19T12:45:22;93381.63;;;14.76;46.21
49393;BME280;35268;42.642;23.308;2023-04-19T12:47:48;93380.59;;;14.64;46.49
49393;BME280;35268;42.642;23.308;2023-04-19T12:50:14;93390.13;;;14.62;46.64
49393;BME280;35268;42.642;23.308;2023-04-19T12:52:41;93388.84;;;14.40;46.52
49393;BME280;35268;42.642;23.308;2023-04-19T12:55:07;93389.19;;;14.22;47.33
49393;BME280;35268;42.642;23.308;2023-04-19T12:57:33;93387.22;;;14.19;48.07
49393;BME280;35268;42.642;23.308;2023-04-19T12:59:58;93392.91;;;14.02;48.17
49393;BME280;35268;42.642;23.308;2023-04-19T13:02:24;93379.88;;;13.84;48.19
49393;BME280;35268;42.642;23.308;2023-04-19T13:04:50;93383.22;;;13.81;49.13